sensor_id;sensor_type;location;lat;lon;timestamp;pressure;altitude;pressure_sealevel;temperature;humidity
25759;BME280;13604;52.496;13.456;2023-09-18T00:01:46;100850.56;;;16.99;100.00
25759;BME280;13604;52.496;13.456;2023-09-18T00:04:11;100824.91;;;16.89;100.00
25759;BME280;13604;52.496;13.456;2023-09-18T00:06:37;100827.53;;;16.89;100.00
25759;BME280;13604;52.496;13.456;2023-09-18T00:09:02;100823.19;;;16.89;100.00
25759;BME280;13604;52.496;13.456;2023-09-18T00:11:27;100815.00;;;16.77;100.00
25759;BME280;13604;52.496;13.456;2023-09-18T00:13:53;100834.34;;;16.81;100.00
25759;BME280;13604;52.496;13.456;2023-09-18T00:16:18;100831.75;;;16.82;100.00
25759;BME280;13604;52.496;13.456;2023-09-18T00:18:43;100814.00;;;16.72;100.00
25759;BME280;13604;52.496;13.456;2023-09-18T00:21:10;100833.50;;;16.82;100.00
25759;BME280;13604;52.496;13.456;2023-09-18T00:23:38;100847.56;;;16.84;100.00
25759;BME280;13604;52.496;13.456;2023-09-18T00:26:03;100825.38;;;16.69;100.00
25759;BME280;13604;52.496;13.456;2023-09-18T00:28:29;100846.66;;;16.82;100.00
25759;BME280;13604;52.496;13.456;2023-09-18T00:30:54;100853.81;;;16.87;100.00
25759;BME280;13604;52.496;13.456;2023-09-18T00:33:20;100836.13;;;16.82;100.00
25759;BME280;13604;52.496;13.456;2023-09-18T00:35:47;100835.16;;;16.77;100.00
25759;BME280;13604;52.496;13.456;2023-09-18T00:38:13;100842.19;;;16.79;100.00
25759;BME280;13604;52.496;13.456;2023-09-18T00:40:38;100836.94;;;16.78;100.00
25759;BME280;13604;52.496;13.456;2023-09-18T00:43:03;100837.00;;;16.82;100.00
25759;BME280;13604;52.496;13.456;2023-09-18T00:45:29;100830.81;;;16.79;100.00
25759;BME280;13604;52.496;13.456;2023-09-18T00:47:54;100820.13;;;16.69;100.00
25759;BME280;13604;52.496;13.456;2023-09-18T00:50:20;100804.16;;;16.62;100.00
25759;BME280;13604;52.496;13.456;2023-09-18T00:52:47;100831.50;;;16.70;100.00
25759;BME280;13604;52.496;13.456;2023-09-18T00:55:13;100801.28;;;16.51;100.00
25759;BME280;13604;52.496;13.456;2023-09-18T00:57:38;100824.50;;;16.70;100.00
25759;BME280;13604;52.496;13.456;2023-09-18T01:00:05;100790.78;;;16.51;100.00
25759;BME280;13604;52.496;13.456;2023-09-18T01:02:31;100799.59;;;16.54;100.00
25759;BME280;13604;52.496;13.456;2023-09-18T01:04:57;100817.25;;;16.59;100.00
25759;BME280;13604;52.496;13.456;2023-09-18T01:07:22;100807.53;;;16.56;100.00
25759;BME280;13604;52.496;13.456;2023-09-18T01:09:48;100788.72;;;16.37;100.00
25759;BME280;13604;52.496;13.456;2023-09-18T01:12:23;100817.97;;;16.51;100.00
25759;BME280;13604;52.496;13.456;2023-09-18T01:17:58;100810.81;;;16.46;100.00
25759;BME280;13604;52.496;13.456;2023-09-18T01:20:23;100810.72;;;16.41;100.00
25759;BME280;13604;52.496;13.456;2023-09-18T01:22:48;100768.91;;;16.12;100.00
25759;BME280;13604;52.496;13.456;2023-09-18T01:25:15;100803.56;;;16.34;100.00
25759;BME280;13604;52.496;13.456;2023-09-18T01:27:40;100780.38;;;16.16;100.00
25759;BME280;13604;52.496;13.456;2023-09-18T01:30:06;100774.97;;;16.10;100.00
25759;BME280;13604;52.496;13.456;2023-09-18T01:32:32;100804.34;;;16.31;100.00
25759;BME280;13604;52.496;13.456;2023-09-18T01:35:01;100799.78;;;16.23;100.00
25759;BME280;13604;52.496;13.456;2023-09-18T01:37:28;100806.06;;;16.29;100.00
25759;BME280;13604;52.496;13.456;2023-09-18T01:39:54;100802.38;;;16.21;100.00
25759;BME280;13604;52.496;13.456;2023-09-18T01:42:23;100788.09;;;16.10;100.00
25759;BME280;13604;52.496;13.456;2023-09-18T01:44:48;100788.09;;;16.10;100.00
25759;BME280;13604;52.496;13.456;2023-09-18T01:47:16;100789.00;;;16.10;100.00
25759;BME280;13604;52.496;13.456;2023-09-18T01:49:42;100783.69;;;16.07;100.00
25759;BME280;13604;52.496;13.456;2023-09-18T01:52:08;100794.25;;;16.10;100.00
25759;BME280;13604;52.496;13.456;2023-09-18T01:54:34;100800.34;;;16.09;100.00
25759;BME280;13604;52.496;13.456;2023-09-18T01:57:00;100800.28;;;16.06;100.00
25759;BME280;13604;52.496;13.456;2023-09-18T01:59:25;100774.50;;;15.90;100.00
25759;BME280;13604;52.496;13.456;2023-09-18T02:01:51;100781.78;;;16.01;100.00
25759;BME280;13604;52.496;13.456;2023-09-18T02:04:17;100781.66;;;15.95;100.00
25759;BME280;13604;52.496;13.456;2023-09-18T02:06:43;100759.56;;;15.87;100.00
25759;BME280;13604;52.496;13.456;2023-09-18T02:09:09;100745.31;;;15.76;100.00
25759;BME280;13604;52.496;13.456;2023-09-18T02:11:39;100689.41;;;15.45;100.00
25759;BME280;13604;52.496;13.456;2023-09-18T02:14:05;100723.16;;;15.66;100.00
25759;BME280;13604;52.496;13.456;2023-09-18T02:16:34;100720.50;;;15.64;100.00
25759;BME280;13604;52.496;13.456;2023-09-18T02:18:59;100744.50;;;15.80;100.00
25759;BME280;13604;52.496;13.456;2023-09-18T02:21:25;100722.31;;;15.69;100.00
25759;BME280;13604;52.496;13.456;2023-09-18T02:23:51;100715.28;;;15.66;100.00
25759;BME280;13604;52.496;13.456;2023-09-18T02:26:17;100664.69;;;15.37;100.00
25759;BME280;13604;52.496;13.456;2023-09-18T02:28:43;100723.19;;;15.68;100.00
25759;BME280;13604;52.496;13.456;2023-09-18T02:31:08;100689.47;;;15.48;100.00
25759;BME280;13604;52.496;13.456;2023-09-18T02:33:34;100700.88;;;15.50;100.00
25759;BME280;13604;52.496;13.456;2023-09-18T02:35:59;100679.69;;;15.42;100.00
25759;BME280;13604;52.496;13.456;2023-09-18T02:38:27;100692.94;;;15.47;100.00
25759;BME280;13604;52.496;13.456;2023-09-18T02:40:52;100691.19;;;15.46;100.00
25759;BME280;13604;52.496;13.456;2023-09-18T02:43:19;100710.72;;;15.59;100.00
25759;BME280;13604;52.496;13.456;2023-09-18T02:45:44;100719.56;;;15.62;100.00
25759;BME280;13604;52.496;13.456;2023-09-18T02:48:11;100684.19;;;15.46;100.00
25759;BME280;13604;52.496;13.456;2023-09-18T02:50:36;100704.66;;;15.61;100.00
25759;BME280;13604;52.496;13.456;2023-09-18T02:53:01;100687.75;;;15.50;100.00
25759;BME280;13604;52.496;13.456;2023-09-18T02:55:26;100707.28;;;15.61;100.00
25759;BME280;13604;52.496;13.456;2023-09-18T02:57:52;100700.13;;;15.56;100.00
25759;BME280;13604;52.496;13.456;2023-09-18T03:00:17;100674.38;;;15.38;100.00
25759;BME280;13604;52.496;13.456;2023-09-18T03:02:42;100691.38;;;15.55;100.00
25759;BME280;13604;52.496;13.456;2023-09-18T03:05:08;100685.13;;;15.50;100.00
25759;BME280;13604;52.496;13.456;2023-09-18T03:07:33;100646.09;;;15.27;100.00
25759;BME280;13604;52.496;13.456;2023-09-18T03:09:59;100677.03;;;15.41;100.00
25759;BME280;13604;52.496;13.456;2023-09-18T03:12:24;100670.03;;;15.40;100.00
25759;BME280;13604;52.496;13.456;2023-09-18T03:14:49;100670.03;;;15.40;100.00
25759;BME280;13604;52.496;13.456;2023-09-18T03:17:15;100634.69;;;15.25;100.00
25759;BME280;13604;52.496;13.456;2023-09-18T03:19:40;100646.22;;;15.32;100.00
25759;BME280;13604;52.496;13.456;2023-09-18T03:22:05;100662.13;;;15.38;100.00
25759;BME280;13604;52.496;13.456;2023-09-18T03:24:31;100609.69;;;15.03;100.00
25759;BME280;13604;52.496;13.456;2023-09-18T03:26:56;100662.84;;;15.33;100.00
25759;BME280;13604;52.496;13.456;2023-09-18T03:29:21;100677.94;;;15.41;100.00
25759;BME280;13604;52.496;13.456;2023-09-18T03:31:47;100653.09;;;15.27;100.00
25759;BME280;13604;52.496;13.456;2023-09-18T03:34:12;100591.09;;;14.94;100.00
25759;BME280;13604;52.496;13.456;2023-09-18T03:36:38;100669.06;;;15.36;100.00
25759;BME280;13604;52.496;13.456;2023-09-18T03:39:04;100597.28;;;14.98;100.00
25759;BME280;13604;52.496;13.456;2023-09-18T03:41:30;100668.19;;;15.37;100.00
25759;BME280;13604;52.496;13.456;2023-09-18T03:43:59;100654.97;;;15.33;100.00
25759;BME280;13604;52.496;13.456;2023-09-18T03:46:25;100593.63;;;14.91;100.00
25759;BME280;13604;52.496;13.456;2023-09-18T03:48:50;100665.41;;;15.31;100.00
25759;BME280;13604;52.496;13.456;2023-09-18T03:51:16;100667.22;;;15.32;100.00
25759;BME280;13604;52.496;13.456;2023-09-18T03:53:43;100648.59;;;15.21;100.00
25759;BME280;13604;52.496;13.456;2023-09-18T03:56:09;100664.53;;;15.31;100.00
25759;BME280;13604;52.496;13.456;2023-09-18T03:58:34;100632.59;;;15.11;100.00
25759;BME280;13604;52.496;13.456;2023-09-18T04:01:00;100655.69;;;15.25;100.00
25759;BME280;13604;52.496;13.456;2023-09-18T04:03:25;100645.06;;;15.21;100.00
25759;BME280;13604;52.496;13.456;2023-09-18T04:05:51;100615.88;;;15.07;100.00
25759;BME280;13604;52.496;13.456;2023-09-18T04:08:16;100649.47;;;15.22;100.00
25759;BME280;13604;52.496;13.456;2023-09-18T04:10:41;100653.84;;;15.23;100.00
25759;BME280;13604;52.496;13.456;2023-09-18T04:13:07;100644.28;;;15.23;100.00
25759;BME280;13604;52.496;13.456;2023-09-18T04:15:33;100651.19;;;15.20;100.00
25759;BME280;13604;52.496;13.456;2023-09-18T04:18:03;100646.66;;;15.14;100.00
25759;BME280;13604;52.496;13.456;2023-09-18T04:20:28;100629.16;;;15.13;100.00
25759;BME280;13604;52.496;13.456;2023-09-18T04:23:19;100631.78;;;15.15;100.00
25759;BME280;13604;52.496;13.456;2023-09-18T04:25:45;100627.50;;;15.17;100.00
25759;BME280;13604;52.496;13.456;2023-09-18T04:28:12;100613.25;;;15.07;100.00
25759;BME280;13604;52.496;13.456;2023-09-18T04:30:38;100600.78;;;14.97;100.00
25759;BME280;13604;52.496;13.456;2023-09-18T04:33:03;100624.84;;;15.15;100.00
25759;BME280;13604;52.496;13.456;2023-09-18T04:35:28;100605.41;;;15.07;100.00
25759;BME280;13604;52.496;13.456;2023-09-18T04:37:56;100598.16;;;14.98;100.00
25759;BME280;13604;52.496;13.456;2023-09-18T04:40:24;100610.56;;;15.04;100.00
25759;BME280;13604;52.496;13.456;2023-09-18T04:42:51;100619.50;;;15.12;100.00
25759;BME280;13604;52.496;13.456;2023-09-18T04:45:17;100584.97;;;14.94;100.00
25759;BME280;13604;52.496;13.456;2023-09-18T04:47:42;100615.19;;;15.14;100.00
25759;BME280;13604;52.496;13.456;2023-09-18T04:50:08;100619.47;;;15.11;100.00
25759;BME280;13604;52.496;13.456;2023-09-18T04:52:33;100613.31;;;15.08;100.00
25759;BME280;13604;52.496;13.456;2023-09-18T04:54:59;100581.31;;;14.87;100.00
25759;BME280;13604;52.496;13.456;2023-09-18T04:57:24;100617.75;;;15.13;100.00
25759;BME280;13604;52.496;13.456;2023-09-18T04:59:49;100618.72;;;15.16;100.00
25759;BME280;13604;52.496;13.456;2023-09-18T05:02:15;100616.91;;;15.14;100.00
25759;BME280;13604;52.496;13.456;2023-09-18T05:04:41;100559.44;;;14.86;100.00
25759;BME280;13604;52.496;13.456;2023-09-18T05:07:06;100607.47;;;15.20;100.00
25759;BME280;13604;52.496;13.456;2023-09-18T05:09:31;100609.25;;;15.21;100.00
25759;BME280;13604;52.496;13.456;2023-09-18T05:11:57;100544.53;;;14.84;100.00
25759;BME280;13604;52.496;13.456;2023-09-18T05:14:23;100614.56;;;15.26;100.00
25759;BME280;13604;52.496;13.456;2023-09-18T05:16:48;100606.66;;;15.24;100.00
25759;BME280;13604;52.496;13.456;2023-09-18T05:19:13;100589.19;;;15.23;100.00
25759;BME280;13604;52.496;13.456;2023-09-18T05:21:39;100547.69;;;15.07;100.00
25759;BME280;13604;52.496;13.456;2023-09-18T05:24:04;100603.56;;;15.41;100.00
25759;BME280;13604;52.496;13.456;2023-09-18T05:26:30;100595.91;;;15.50;100.00
25759;BME280;13604;52.496;13.456;2023-09-18T05:28:56;100597.84;;;15.59;100.00
25759;BME280;13604;52.496;13.456;2023-09-18T05:31:21;100568.00;;;15.54;100.00
25759;BME280;13604;52.496;13.456;2023-09-18T05:33:46;100563.00;;;15.64;100.00
25759;BME280;13604;52.496;13.456;2023-09-18T05:36:15;100601.31;;;15.96;100.00
25759;BME280;13604;52.496;13.456;2023-09-18T05:38:41;100599.72;;;16.04;100.00
25759;BME280;13604;52.496;13.456;2023-09-18T05:41:06;100574.38;;;16.06;100.00
25759;BME280;13604;52.496;13.456;2023-09-18T05:43:31;100558.63;;;16.06;100.00
25759;BME280;13604;52.496;13.456;2023-09-18T05:45:56;100570.41;;;16.27;100.00
25759;BME280;13604;52.496;13.456;2023-09-18T05:48:22;100564.50;;;16.38;100.00
25759;BME280;13604;52.496;13.456;2023-09-18T05:50:47;100561.22;;;16.52;100.00
25759;BME280;13604;52.496;13.456;2023-09-18T05:53:13;100566.78;;;16.69;100.00
25759;BME280;13604;52.496;13.456;2023-09-18T05:55:38;100537.75;;;16.64;100.00
25759;BME280;13604;52.496;13.456;2023-09-18T05:58:04;100567.13;;;16.89;100.00
25759;BME280;13604;52.496;13.456;2023-09-18T06:00:30;100556.72;;;16.95;100.00
25759;BME280;13604;52.496;13.456;2023-09-18T06:02:56;100531.28;;;16.92;100.00
25759;BME280;13604;52.496;13.456;2023-09-18T06:05:21;100560.63;;;17.19;100.00
25759;BME280;13604;52.496;13.456;2023-09-18T06:07:49;100552.78;;;17.23;100.00
25759;BME280;13604;52.496;13.456;2023-09-18T06:10:15;100547.59;;;17.29;100.00
25759;BME280;13604;52.496;13.456;2023-09-18T06:12:40;100542.47;;;17.37;100.00
25759;BME280;13604;52.496;13.456;2023-09-18T06:15:07;100533.84;;;17.49;100.00
25759;BME280;13604;52.496;13.456;2023-09-18T06:17:36;100511.78;;;17.39;100.00
25759;BME280;13604;52.496;13.456;2023-09-18T06:20:02;100520.78;;;17.55;100.00
25759;BME280;13604;52.496;13.456;2023-09-18T06:22:28;100520.84;;;17.63;100.00
25759;BME280;13604;52.496;13.456;2023-09-18T06:24:53;100509.31;;;17.53;100.00
25759;BME280;13604;52.496;13.456;2023-09-18T06:27:19;100515.56;;;17.60;100.00
25759;BME280;13604;52.496;13.456;2023-09-18T06:29:44;100495.38;;;17.60;100.00
25759;BME280;13604;52.496;13.456;2023-09-18T06:32:09;100524.03;;;18.05;100.00
25759;BME280;13604;52.496;13.456;2023-09-18T06:34:35;100512.66;;;18.10;100.00
25759;BME280;13604;52.496;13.456;2023-09-18T06:37:00;100512.91;;;18.35;99.66
25759;BME280;13604;52.496;13.456;2023-09-18T06:39:25;100505.31;;;18.70;98.15
25759;BME280;13604;52.496;13.456;2023-09-18T06:41:51;100509.00;;;18.89;95.57
25759;BME280;13604;52.496;13.456;2023-09-18T06:44:16;100492.25;;;18.84;94.57
25759;BME280;13604;52.496;13.456;2023-09-18T06:46:41;100520.44;;;18.93;94.45
25759;BME280;13604;52.496;13.456;2023-09-18T06:49:07;100508.34;;;19.21;93.38
25759;BME280;13604;52.496;13.456;2023-09-18T06:51:33;100524.34;;;19.49;91.54
25759;BME280;13604;52.496;13.456;2023-09-18T06:53:58;100503.28;;;19.66;89.05
25759;BME280;13604;52.496;13.456;2023-09-18T06:56:24;100499.91;;;19.99;88.50
25759;BME280;13604;52.496;13.456;2023-09-18T06:58:50;100478.81;;;20.44;85.76
25759;BME280;13604;52.496;13.456;2023-09-18T07:01:19;100471.75;;;20.51;83.97
25759;BME280;13604;52.496;13.456;2023-09-18T07:03:46;100493.81;;;21.01;81.44
25759;BME280;13604;52.496;13.456;2023-09-18T07:06:13;100471.63;;;21.46;79.59
25759;BME280;13604;52.496;13.456;2023-09-18T07:08:38;100486.44;;;21.91;75.32
25759;BME280;13604;52.496;13.456;2023-09-18T07:11:03;100479.13;;;22.28;74.53
25759;BME280;13604;52.496;13.456;2023-09-18T07:13:29;100476.47;;;22.39;73.68
25759;BME280;13604;52.496;13.456;2023-09-18T07:15:54;100470.66;;;22.94;71.94
25759;BME280;13604;52.496;13.456;2023-09-18T07:18:19;100461.91;;;22.85;70.66
25759;BME280;13604;52.496;13.456;2023-09-18T07:20:44;100450.78;;;22.41;71.51
25759;BME280;13604;52.496;13.456;2023-09-18T07:23:10;100441.19;;;22.18;72.40
25759;BME280;13604;52.496;13.456;2023-09-18T07:25:35;100445.44;;;22.46;71.41
25759;BME280;13604;52.496;13.456;2023-09-18T07:28:06;100440.34;;;23.14;68.60
25759;BME280;13604;52.496;13.456;2023-09-18T07:30:31;100453.34;;;23.39;67.53
25759;BME280;13604;52.496;13.456;2023-09-18T07:32:57;100441.25;;;23.86;66.71
25759;BME280;13604;52.496;13.456;2023-09-18T07:35:23;100435.38;;;24.23;64.02
25759;BME280;13604;52.496;13.456;2023-09-18T07:37:48;100416.66;;;24.80;62.50
25759;BME280;13604;52.496;13.456;2023-09-18T07:40:14;100443.84;;;24.98;61.88
25759;BME280;13604;52.496;13.456;2023-09-18T07:42:40;100448.94;;;24.62;60.87
25759;BME280;13604;52.496;13.456;2023-09-18T07:45:06;100448.19;;;25.04;60.33
25759;BME280;13604;52.496;13.456;2023-09-18T07:47:32;100428.50;;;24.64;59.46
25759;BME280;13604;52.496;13.456;2023-09-18T07:49:57;100453.31;;;24.66;60.25
25759;BME280;13604;52.496;13.456;2023-09-18T07:52:22;100445.34;;;24.65;60.39
25759;BME280;13604;52.496;13.456;2023-09-18T07:54:47;100446.84;;;24.27;60.90
25759;BME280;13604;52.496;13.456;2023-09-18T07:57:13;100416.16;;;24.58;59.87
25759;BME280;13604;52.496;13.456;2023-09-18T07:59:39;100463.25;;;25.51;57.31
25759;BME280;13604;52.496;13.456;2023-09-18T08:02:05;100439.56;;;25.78;56.05
25759;BME280;13604;52.496;13.456;2023-09-18T08:04:31;100452.91;;;26.53;54.09
25759;BME280;13604;52.496;13.456;2023-09-18T08:06:57;100438.38;;;26.99;53.43
25759;BME280;13604;52.496;13.456;2023-09-18T08:09:22;100420.31;;;27.08;52.02
25759;BME280;13604;52.496;13.456;2023-09-18T08:11:47;100429.69;;;27.84;50.10
25759;BME280;13604;52.496;13.456;2023-09-18T08:14:14;100421.09;;;28.56;48.60
25759;BME280;13604;52.496;13.456;2023-09-18T08:16:40;100406.88;;;28.00;48.20
25759;BME280;13604;52.496;13.456;2023-09-18T08:19:05;100431.13;;;27.03;50.62
25759;BME280;13604;52.496;13.456;2023-09-18T08:21:32;100423.47;;;28.12;48.87
25759;BME280;13604;52.496;13.456;2023-09-18T08:23:57;100412.81;;;28.37;46.69
25759;BME280;13604;52.496;13.456;2023-09-18T08:26:22;100405.88;;;28.31;47.53
25759;BME280;13604;52.496;13.456;2023-09-18T08:28:48;100415.88;;;29.98;44.22
25759;BME280;13604;52.496;13.456;2023-09-18T08:31:13;100411.66;;;29.92;43.65
25759;BME280;13604;52.496;13.456;2023-09-18T08:33:41;100412.09;;;30.46;42.74
25759;BME280;13604;52.496;13.456;2023-09-18T08:36:06;100400.47;;;31.47;41.10
25759;BME280;13604;52.496;13.456;2023-09-18T08:38:32;100414.63;;;31.50;39.77
25759;BME280;13604;52.496;13.456;2023-09-18T08:40:57;100418.03;;;31.92;39.44
25759;BME280;13604;52.496;13.456;2023-09-18T08:43:23;100421.00;;;32.05;38.75
25759;BME280;13604;52.496;13.456;2023-09-18T08:45:53;100421.63;;;32.99;37.32
25759;BME280;13604;52.496;13.456;2023-09-18T08:48:20;100412.63;;;33.65;36.48
25759;BME280;13604;52.496;13.456;2023-09-18T08:50:47;100405.75;;;34.07;34.81
25759;BME280;13604;52.496;13.456;2023-09-18T08:53:13;100406.00;;;34.49;33.99
25759;BME280;13604;52.496;13.456;2023-09-18T08:55:38;100398.59;;;34.83;33.94
25759;BME280;13604;52.496;13.456;2023-09-18T08:58:06;100402.47;;;33.86;35.22
25759;BME280;13604;52.496;13.456;2023-09-18T09:00:31;100398.41;;;33.30;35.93
25759;BME280;13604;52.496;13.456;2023-09-18T09:02:57;100387.66;;;32.44;37.08
25759;BME280;13604;52.496;13.456;2023-09-18T09:05:22;100363.16;;;32.66;36.84
25759;BME280;13604;52.496;13.456;2023-09-18T09:07:49;100341.56;;;31.96;38.10
25759;BME280;13604;52.496;13.456;2023-09-18T09:10:14;100357.50;;;32.53;37.64
25759;BME280;13604;52.496;13.456;2023-09-18T09:12:53;100352.72;;;33.09;36.77
25759;BME280;13604;52.496;13.456;2023-09-18T09:15:23;100361.06;;;32.19;37.47
25759;BME280;13604;52.496;13.456;2023-09-18T09:17:49;100358.47;;;32.17;37.82
25759;BME280;13604;52.496;13.456;2023-09-18T09:20:15;100331.75;;;33.48;35.72
25759;BME280;13604;52.496;13.456;2023-09-18T09:22:41;100344.97;;;35.04;33.78
25759;BME280;13604;52.496;13.456;2023-09-18T09:25:27;100345.84;;;36.15;32.13
25759;BME280;13604;52.496;13.456;2023-09-18T09:27:54;100335.25;;;34.12;34.31
25759;BME280;13604;52.496;13.456;2023-09-18T09:30:22;100336.94;;;34.29;34.74
25759;BME280;13604;52.496;13.456;2023-09-18T09:32:49;100339.81;;;35.43;33.14
25759;BME280;13604;52.496;13.456;2023-09-18T09:35:42;100330.22;;;34.36;34.30
25759;BME280;13604;52.496;13.456;2023-09-18T09:38:09;100324.88;;;33.26;35.56
25759;BME280;13604;52.496;13.456;2023-09-18T09:40:35;100315.13;;;32.04;38.29
25759;BME280;13604;52.496;13.456;2023-09-18T09:43:02;100302.56;;;32.22;37.87
25759;BME280;13604;52.496;13.456;2023-09-18T09:45:31;100311.81;;;32.34;38.20
25759;BME280;13604;52.496;13.456;2023-09-18T09:48:02;100314.09;;;32.07;37.98
25759;BME280;13604;52.496;13.456;2023-09-18T09:50:29;100305.44;;;31.27;39.47
25759;BME280;13604;52.496;13.456;2023-09-18T09:52:55;100314.28;;;31.10;39.51
25759;BME280;13604;52.496;13.456;2023-09-18T09:55:25;100317.78;;;30.73;40.63
25759;BME280;13604;52.496;13.456;2023-09-18T09:57:53;100333.66;;;29.73;41.94
25759;BME280;13604;52.496;13.456;2023-09-18T10:00:19;100319.09;;;29.11;42.92
25759;BME280;13604;52.496;13.456;2023-09-18T10:02:54;100311.75;;;28.92;43.83
25759;BME280;13604;52.496;13.456;2023-09-18T10:05:22;100323.69;;;28.84;44.01
25759;BME280;13604;52.496;13.456;2023-09-18T10:07:49;100321.19;;;28.54;44.99
25759;BME280;13604;52.496;13.456;2023-09-18T10:10:16;100314.88;;;28.04;45.86
25759;BME280;13604;52.496;13.456;2023-09-18T10:12:42;100290.06;;;27.99;46.79
25759;BME280;13604;52.496;13.456;2023-09-18T10:15:10;100281.50;;;27.88;47.46
25759;BME280;13604;52.496;13.456;2023-09-18T10:17:42;100267.81;;;27.97;47.84
25759;BME280;13604;52.496;13.456;2023-09-18T10:20:12;100283.44;;;28.11;47.98
25759;BME280;13604;52.496;13.456;2023-09-18T10:22:46;100289.13;;;28.25;47.58
25759;BME280;13604;52.496;13.456;2023-09-18T10:25:15;100271.06;;;28.32;46.97
25759;BME280;13604;52.496;13.456;2023-09-18T10:27:44;100283.22;;;28.16;47.28
25759;BME280;13604;52.496;13.456;2023-09-18T10:30:10;100267.19;;;28.16;47.24
25759;BME280;13604;52.496;13.456;2023-09-18T10:32:39;100304.84;;;27.83;45.76
25759;BME280;13604;52.496;13.456;2023-09-18T10:35:06;100302.16;;;27.56;47.90
25759;BME280;13604;52.496;13.456;2023-09-18T10:37:33;100301.19;;;27.59;46.59
25759;BME280;13604;52.496;13.456;2023-09-18T10:40:00;100282.91;;;27.15;47.14
25759;BME280;13604;52.496;13.456;2023-09-18T10:42:27;100307.91;;;26.83;47.84
25759;BME280;13604;52.496;13.456;2023-09-18T10:44:53;100318.03;;;27.03;47.37
25759;BME280;13604;52.496;13.456;2023-09-18T10:47:19;100320.38;;;27.13;47.08
25759;BME280;13604;52.496;13.456;2023-09-18T10:49:45;100313.25;;;27.14;47.33
25759;BME280;13604;52.496;13.456;2023-09-18T10:52:11;100297.50;;;27.05;46.75
25759;BME280;13604;52.496;13.456;2023-09-18T10:54:38;100304.06;;;26.93;46.66
25759;BME280;13604;52.496;13.456;2023-09-18T10:57:04;100288.47;;;26.77;47.36
25759;BME280;13604;52.496;13.456;2023-09-18T10:59:30;100305.31;;;27.11;46.56
25759;BME280;13604;52.496;13.456;2023-09-18T11:01:58;100295.28;;;27.19;46.93
25759;BME280;13604;52.496;13.456;2023-09-18T11:04:28;100295.13;;;27.53;46.58
25759;BME280;13604;52.496;13.456;2023-09-18T11:09:24;100277.88;;;27.62;46.83
25759;BME280;13604;52.496;13.456;2023-09-18T11:11:53;100298.25;;;27.38;47.69
25759;BME280;13604;52.496;13.456;2023-09-18T11:14:23;100297.19;;;26.51;50.22
25759;BME280;13604;52.496;13.456;2023-09-18T11:16:51;100299.47;;;26.34;49.89
25759;BME280;13604;52.496;13.456;2023-09-18T11:19:17;100297.97;;;25.87;51.40
25759;BME280;13604;52.496;13.456;2023-09-18T11:21:43;100307.28;;;25.71;51.84
25759;BME280;13604;52.496;13.456;2023-09-18T11:24:19;100310.50;;;25.84;52.09
25759;BME280;13604;52.496;13.456;2023-09-18T11:26:50;100309.56;;;25.86;51.85
25759;BME280;13604;52.496;13.456;2023-09-18T11:29:20;100301.94;;;25.71;52.43
25759;BME280;13604;52.496;13.456;2023-09-18T11:31:52;100297.03;;;25.52;53.44
25759;BME280;13604;52.496;13.456;2023-09-18T11:34:23;100292.44;;;25.59;54.16
25759;BME280;13604;52.496;13.456;2023-09-18T11:36:50;100295.88;;;25.64;53.85
25759;BME280;13604;52.496;13.456;2023-09-18T11:39:37;100312.78;;;25.63;54.20
25759;BME280;13604;52.496;13.456;2023-09-18T11:42:11;100317.13;;;25.67;53.92
25759;BME280;13604;52.496;13.456;2023-09-18T11:44:37;100323.38;;;25.66;54.07
25759;BME280;13604;52.496;13.456;2023-09-18T11:47:08;100295.03;;;25.23;54.66
25759;BME280;13604;52.496;13.456;2023-09-18T11:49:38;100312.81;;;25.21;55.76
25759;BME280;13604;52.496;13.456;2023-09-18T11:52:07;100296.44;;;24.99;56.04
25759;BME280;13604;52.496;13.456;2023-09-18T11:54:32;100309.59;;;25.07;56.60
25759;BME280;13604;52.496;13.456;2023-09-18T11:57:02;100275.97;;;25.01;56.49
25759;BME280;13604;52.496;13.456;2023-09-18T11:59:34;100294.19;;;25.20;56.76
25759;BME280;13604;52.496;13.456;2023-09-18T12:02:00;100271.41;;;25.06;56.27
25759;BME280;13604;52.496;13.456;2023-09-18T12:04:31;100287.25;;;25.12;56.29
25759;BME280;13604;52.496;13.456;2023-09-18T12:06:58;100290.47;;;25.30;55.07
25759;BME280;13604;52.496;13.456;2023-09-18T12:09:26;100276.19;;;25.70;55.23
25759;BME280;13604;52.496;13.456;2023-09-18T12:11:51;100295.97;;;26.32;54.14
25759;BME280;13604;52.496;13.456;2023-09-18T12:14:20;100274.72;;;26.60;53.11
25759;BME280;13604;52.496;13.456;2023-09-18T12:16:45;100290.09;;;27.13;52.12
25759;BME280;13604;52.496;13.456;2023-09-18T12:19:16;100276.41;;;27.24;49.96
25759;BME280;13604;52.496;13.456;2023-09-18T12:21:42;100292.34;;;27.27;49.58
25759;BME280;13604;52.496;13.456;2023-09-18T12:24:14;100259.28;;;27.31;48.26
25759;BME280;13604;52.496;13.456;2023-09-18T12:26:40;100259.38;;;27.56;47.71
25759;BME280;13604;52.496;13.456;2023-09-18T12:29:06;100253.09;;;28.11;46.32
25759;BME280;13604;52.496;13.456;2023-09-18T12:31:32;100255.16;;;27.49;46.96
25759;BME280;13604;52.496;13.456;2023-09-18T12:33:58;100268.63;;;26.88;49.91
25759;BME280;13604;52.496;13.456;2023-09-18T12:36:23;100250.78;;;26.57;50.13
25759;BME280;13604;52.496;13.456;2023-09-18T12:38:59;100258.06;;;26.19;51.88